Time;durP1;ratioP1;P1;durP2;ratioP2;P2;SDS_P1;SDS_P2;PMS_P1;PMS_P2;Temp;Humidity;BMP_temperature;BMP_pressure;BME280_temperature;BME280_humidity;BME280_pressure;Samples;Min_cycle;Max_cycle;Signal;HPM_P1;HPM_P2
2022/11/07 00:02:09;;;;;;;1912.78;770.35;;;16.60;99.90;;;;;;5137719;27;20047;-80
2022/11/07 00:04:35;;;;;;;;;;;16.60;99.90;;;;;;5157993;27;20130;-81
2022/11/07 00:07:01;;;;;;;1999.90;999.90;;;16.40;99.90;;;;;;5156957;27;19962;-80
2022/11/07 00:09:27;;;;;;;1999.90;196.20;;;16.40;99.90;;;;;;5138434;27;20061;-82
2022/11/07 00:11:53;;;;;;;1932.35;770.10;;;16.00;99.90;;;;;;5157026;27;20039;-81
2022/11/07 00:14:19;;;;;;;1999.90;999.90;;;16.10;99.90;;;;;;5156333;27;20034;-79
2022/11/07 00:16:46;;;;;;;1999.90;999.90;;;16.70;99.90;;;;;;5156627;27;20412;-81
2022/11/07 00:19:14;;;;;;;1343.65;511.92;;;16.50;99.90;;;;;;5155992;27;20085;-80
2022/11/07 00:21:41;;;;;;;1999.90;999.90;;;16.10;99.90;;;;;;5156082;27;20054;-81
2022/11/07 00:24:07;;;;;;;1999.90;999.90;;;16.10;99.90;;;;;;5156277;27;20049;-80
2022/11/07 00:26:34;;;;;;;1795.25;765.10;;;16.40;99.90;;;;;;5137760;27;20463;-80
2022/11/07 00:28:59;;;;;;;1999.90;999.90;;;16.50;99.90;;;;;;5156893;27;20134;-81
2022/11/07 00:31:25;;;;;;;1999.90;999.90;;;16.40;99.90;;;;;;5154955;27;20082;-81
2022/11/07 00:33:51;;;;;;;1999.90;999.90;;;16.50;99.90;;;;;;5156211;27;20053;-82
2022/11/07 00:36:27;;;;;;;1999.90;999.90;;;16.20;99.90;;;;;;5155122;27;20042;-82
2022/11/07 00:38:54;;;;;;;1999.90;999.90;;;16.90;99.90;;;;;;5154515;27;20038;-81
2022/11/07 00:41:21;;;;;;;1999.90;999.90;;;16.70;99.90;;;;;;5154421;27;20570;-80
2022/11/07 00:43:47;;;;;;;1797.05;764.95;;;16.80;99.90;;;;;;5137738;27;20054;-81
2022/11/07 00:46:14;;;;;;;1999.90;999.90;;;16.90;99.90;;;;;;5136707;27;20042;-81
2022/11/07 00:48:40;;;;;;;1999.90;999.90;;;16.30;99.90;;;;;;5155725;27;20097;-83
2022/11/07 00:51:12;;;;;;;1999.90;999.90;;;16.80;99.90;;;;;;5136855;27;20078;-82
2022/11/07 00:53:38;;;;;;;1999.90;999.90;;;16.90;99.90;;;;;;5155752;27;20043;-82
2022/11/07 00:56:09;;;;;;;1999.90;999.90;;;16.60;99.90;;;;;;5155024;27;20082;-83
2022/11/07 00:58:35;;;;;;;1999.90;999.90;;;16.40;99.90;;;;;;5137390;27;20539;-82
2022/11/07 01:01:19;;;;;;;1999.90;999.90;;;16.50;99.90;;;;;;5152138;27;20046;-83
2022/11/07 01:06:31;;;;;;;1714.63;761.17;;;16.70;99.90;;;;;;5154572;27;20054;-84
2022/11/07 01:08:58;;;;;;;1999.90;999.90;;;16.50;99.90;;;;;;5155622;27;20092;-83
2022/11/07 01:11:26;;;;;;;1999.90;999.90;;;16.70;99.90;;;;;;5153760;27;20082;-85
2022/11/07 01:13:59;;;;;;;1999.90;999.90;;;16.80;99.90;;;;;;5155151;27;20038;-78
2022/11/07 01:16:26;;;;;;;1999.90;999.90;;;16.80;99.90;;;;;;5136850;27;20049;-83
2022/11/07 01:18:52;;;;;;;1999.90;999.90;;;17.00;99.90;;;;;;5155144;27;21967;-86
2022/11/07 01:21:18;;;;;;;1999.90;999.90;;;16.60;99.90;;;;;;5154127;27;20130;-85
2022/11/07 01:23:44;;;;;;;1999.90;999.90;;;17.00;99.90;;;;;;5155100;27;20134;-86
2022/11/07 01:26:11;;;;;;;1999.90;999.90;;;17.10;99.90;;;;;;5155131;27;20494;-86
2022/11/07 01:28:37;;;;;;;1939.03;470.80;;;16.60;99.90;;;;;;5136453;27;20042;-85
2022/11/07 01:31:09;;;;;;;1999.90;999.90;;;16.90;99.90;;;;;;5154896;27;20154;-84
2022/11/07 01:33:35;;;;;;;1999.90;999.90;;;17.00;99.90;;;;;;5135958;27;20050;-85
2022/11/07 01:36:03;;;;;;;1999.90;999.90;;;16.60;99.90;;;;;;5153906;27;20050;-84
2022/11/07 01:38:29;;;;;;;1999.90;999.90;;;17.00;99.90;;;;;;5154286;27;20047;-87
2022/11/07 01:43:46;;;;;;;1999.90;999.90;;;16.70;99.90;;;;;;5155248;27;20086;-88
2022/11/07 01:46:13;;;;;;;1999.90;999.90;;;16.90;99.90;;;;;;5154400;27;20046;-84
2022/11/07 01:48:41;;;;;;;1630.95;538.63;;;16.80;99.90;;;;;;5119395;27;20046;-86
2022/11/07 01:51:07;;;;;;;1999.90;999.90;;;16.70;99.90;;;;;;5135838;27;20086;-89
2022/11/07 01:53:34;;;;;;;1999.90;999.90;;;16.70;99.90;;;;;;5134989;27;20079;-89
2022/11/07 01:56:01;;;;;;;1999.90;999.90;;;17.10;99.90;;;;;;5154061;27;20054;-89
2022/11/07 01:58:27;;;;;;;1999.90;999.90;;;17.00;99.90;;;;;;5154252;27;20493;-88
2022/11/07 02:00:53;;;;;;;1999.90;999.90;;;17.00;99.90;;;;;;5135640;27;20047;-88
2022/11/07 02:03:20;;;;;;;1999.90;999.90;;;16.90;99.90;;;;;;5135523;27;20471;-82
2022/11/07 02:05:56;;;;;;;1999.90;999.90;;;17.00;99.90;;;;;;5153527;27;20522;-83
2022/11/07 02:08:22;;;;;;;1999.90;999.90;;;16.70;99.90;;;;;;5135721;27;20782;-81
2022/11/07 02:10:49;;;;;;;1999.90;999.90;;;17.20;99.90;;;;;;5154121;27;20047;-80
2022/11/07 02:13:26;;;;;;;1526.72;182.63;;;16.60;99.90;;;;;;5153241;27;20517;-79
2022/11/07 02:15:52;;;;;;;1999.90;999.90;;;16.50;99.90;;;;;;5135669;27;20061;-80
2022/11/07 02:18:20;;;;;;;1999.90;999.90;;;17.80;99.90;;;;;;5153709;27;20129;-79
2022/11/07 02:20:46;;;;;;;1999.90;999.90;;;16.40;99.90;;;;;;5152531;27;20063;-79
2022/11/07 02:23:33;;;;;;;1999.90;999.90;;;16.50;99.90;;;;;;5152142;27;20049;-80
2022/11/07 02:25:59;;;;;;;1999.90;999.90;;;17.50;99.90;;;;;;5135408;27;20043;-78
2022/11/07 02:28:27;;;;;;;1999.90;999.90;;;16.60;99.90;;;;;;5153775;27;20039;-80
2022/11/07 02:30:52;;;;;;;;;;;17.00;99.90;;;;;;5136035;27;20406;-79
2022/11/07 02:33:20;;;;;;;1999.90;999.90;;;16.40;99.90;;;;;;5153505;27;19925;-79
2022/11/07 02:35:47;;;;;;;;;;;17.50;99.90;;;;;;5135666;27;20051;-80
2022/11/07 02:38:17;;;;;;;1457.15;529.50;;;17.20;99.90;;;;;;5135924;27;20397;-80
2022/11/07 02:40:45;;;;;;;1999.90;999.90;;;17.10;99.90;;;;;;5134851;27;20038;-79
2022/11/07 02:43:13;;;;;;;1815.85;778.50;;;17.20;99.90;;;;;;5153740;27;20046;-79
2022/11/07 02:45:42;;;;;;;1999.90;999.90;;;16.70;99.90;;;;;;5117884;27;20042;-80
2022/11/07 02:48:08;;;;;;;1671.30;763.55;;;16.40;99.90;;;;;;5154177;27;20387;-80
2022/11/07 02:50:34;;;;;;;1760.45;559.65;;;16.40;99.90;;;;;;5117261;27;20126;-81
2022/11/07 02:53:00;;;;;;;1999.90;999.90;;;16.60;99.90;;;;;;5153547;27;20042;-80
2022/11/07 02:55:25;;;;;;;1999.90;999.90;;;17.30;99.90;;;;;;5152659;27;20042;-81
2022/11/07 02:57:51;;;;;;;1999.90;999.90;;;17.20;99.90;;;;;;5153287;27;20047;-79
2022/11/07 03:00:17;;;;;;;1999.90;999.90;;;16.40;99.90;;;;;;5153525;27;20471;-77
2022/11/07 03:02:45;;;;;;;1999.90;999.90;;;16.50;99.90;;;;;;5153218;27;20486;-78
2022/11/07 03:05:15;;;;;;;1999.90;999.90;;;16.50;99.90;;;;;;5153450;27;20111;-78
2022/11/07 03:07:43;;;;;;;1999.90;999.90;;;16.40;99.90;;;;;;5117551;27;20062;-78
2022/11/07 03:10:10;;;;;;;1999.90;999.90;;;17.20;99.90;;;;;;5153164;27;20035;-77
2022/11/07 03:12:36;;;;;;;1999.90;999.90;;;17.20;99.90;;;;;;5134861;27;20094;-78
2022/11/07 03:15:03;;;;;;;1999.90;999.90;;;16.90;99.90;;;;;;5134497;27;20046;-79
2022/11/07 03:17:29;;;;;;;1581.57;532.42;;;16.40;99.90;;;;;;5152609;27;20050;-77
2022/11/07 03:19:54;;;;;;;1999.90;999.90;;;16.50;99.90;;;;;;5134385;27;20043;-79
2022/11/07 03:22:20;;;;;;;1999.90;999.90;;;17.30;99.90;;;;;;5151211;27;20045;-77
2022/11/07 03:24:46;;;;;;;1999.90;999.90;;;17.30;99.90;;;;;;5152948;27;20059;-77
2022/11/07 03:27:11;;;;;;;1999.90;999.90;;;16.30;99.90;;;;;;5152486;27;20038;-78
2022/11/07 03:29:37;;;;;;;1999.90;999.90;;;16.50;99.90;;;;;;5153473;27;20375;-79
2022/11/07 03:32:03;;;;;;;1999.90;999.90;;;17.00;99.90;;;;;;5134980;27;20054;-79
2022/11/07 03:34:28;;;;;;;1999.90;999.90;;;16.60;99.90;;;;;;5152624;27;20051;-77
2022/11/07 03:36:54;;;;;;;1999.90;999.90;;;16.80;99.90;;;;;;5138551;27;20043;-79
2022/11/07 03:39:20;;;;;;;1999.90;999.90;;;16.50;99.90;;;;;;5156809;27;20125;-78
2022/11/07 03:41:45;;;;;;;1999.90;999.90;;;17.30;99.90;;;;;;5138399;27;20095;-79
2022/11/07 03:44:11;;;;;;;1177.80;508.85;;;16.20;99.90;;;;;;5157418;27;20047;-77
2022/11/07 03:46:37;;;;;;;1906.60;781.33;;;16.10;99.90;;;;;;5103781;27;20546;-80
2022/11/07 03:49:03;;;;;;;1353.40;515.08;;;17.20;99.90;;;;;;5157075;27;20039;-79
2022/11/07 03:51:28;;;;;;;1999.90;999.90;;;16.30;99.90;;;;;;5137560;27;20052;-80
2022/11/07 03:53:54;;;;;;;1999.90;999.90;;;17.20;99.90;;;;;;5156391;27;20050;-77
2022/11/07 03:56:19;;;;;;;1999.90;999.90;;;17.20;99.90;;;;;;5156682;27;20042;-80
2022/11/07 03:58:45;;;;;;;1999.90;999.90;;;16.50;99.90;;;;;;5156416;27;20051;-80
2022/11/07 04:01:12;;;;;;;1999.90;999.90;;;17.10;99.90;;;;;;5156969;27;20390;-80
2022/11/07 04:03:38;;;;;;;1999.90;999.90;;;16.50;99.90;;;;;;5156066;27;20047;-79
2022/11/07 04:06:04;;;;;;;1999.90;999.90;;;17.20;99.90;;;;;;5156309;27;20039;-80
2022/11/07 04:08:30;;;;;;;1758.55;767.78;;;17.30;99.90;;;;;;5137583;27;20392;-79
2022/11/07 04:10:55;;;;;;;1999.90;999.90;;;16.20;99.90;;;;;;5137855;27;20047;-80
2022/11/07 04:18:34;;;;;;;1832.15;770.72;;;16.50;99.90;;;;;;5137300;27;20183;-80
2022/11/07 04:21:00;;;;;;;1999.90;999.90;;;17.30;99.90;;;;;;5153740;27;20137;-80
2022/11/07 04:23:25;;;;;;;1999.90;999.90;;;16.30;99.90;;;;;;5138136;27;20042;-79
2022/11/07 04:28:35;;;;;;;1999.90;999.90;;;16.90;99.90;;;;;;5155560;27;20054;-79
2022/11/07 04:31:01;;;;;;;1999.90;999.90;;;17.20;99.90;;;;;;5156420;27;20109;-80
2022/11/07 04:33:27;;;;;;;1999.90;999.90;;;16.10;99.90;;;;;;5137422;27;20051;-80
2022/11/07 04:35:52;;;;;;;1541.85;543.08;;;16.20;99.90;;;;;;5137266;27;20061;-80
2022/11/07 04:38:18;;;;;;;1999.90;999.90;;;17.20;99.90;;;;;;5137184;27;20043;-81
2022/11/07 04:40:44;;;;;;;1999.90;999.90;;;17.20;99.90;;;;;;5155281;27;20125;-82
2022/11/07 04:43:09;;;;;;;1154.18;509.40;;;16.30;99.90;;;;;;5156396;27;20050;-81
2022/11/07 04:45:38;;;;;;;1999.90;999.90;;;16.30;99.90;;;;;;5120074;27;20087;-81
2022/11/07 04:48:05;;;;;;;1718.40;364.55;;;17.20;99.90;;;;;;5154424;27;20043;-80
2022/11/07 04:50:30;;;;;;;1999.90;999.90;;;17.00;99.90;;;;;;5155283;27;20043;-80
2022/11/07 04:52:56;;;;;;;1999.90;999.90;;;16.50;99.90;;;;;;5137290;27;20475;-81
2022/11/07 04:55:25;;;;;;;739.33;53.35;;;16.40;99.90;;;;;;5155784;27;20455;-79
2022/11/07 04:57:51;;;;;;;1999.90;999.90;;;17.10;99.90;;;;;;5154938;27;20097;-80
2022/11/07 05:00:18;;;;;;;1999.90;999.90;;;17.30;99.90;;;;;;5154879;27;20035;-78
2022/11/07 05:02:45;;;;;;;1999.90;999.90;;;17.40;99.90;;;;;;5154917;27;20050;-79
2022/11/07 05:05:11;;;;;;;1908.38;336.30;;;17.20;99.90;;;;;;5135493;27;20035;-81
2022/11/07 05:07:38;;;;;;;1999.90;999.90;;;16.30;99.90;;;;;;5154112;27;20047;-80
2022/11/07 05:10:05;;;;;;;1999.90;999.90;;;17.40;99.90;;;;;;5154944;27;20034;-79
2022/11/07 05:12:31;;;;;;;1999.90;999.90;;;17.20;99.90;;;;;;5154365;27;20042;-78
2022/11/07 05:14:57;;;;;;;1574.25;539.47;;;16.60;99.90;;;;;;5119176;27;20038;-80
2022/11/07 05:17:23;;;;;;;1999.90;999.90;;;16.40;99.90;;;;;;5154924;27;20102;-79
2022/11/07 05:19:49;;;;;;;1506.40;525.17;;;17.40;99.90;;;;;;5154583;27;20054;-81
2022/11/07 05:24:58;;;;;;;1999.90;999.90;;;16.30;99.90;;;;;;5155460;27;20046;-80
2022/11/07 05:27:24;;;;;;;1999.90;999.90;;;16.30;99.90;;;;;;5118347;27;20058;-80
2022/11/07 05:29:50;;;;;;;1306.15;510.48;;;17.30;99.90;;;;;;5118475;27;20440;-81
2022/11/07 05:32:16;;;;;;;1999.90;999.90;;;17.50;99.90;;;;;;5154674;27;20057;-88
2022/11/07 05:34:42;;;;;;;1999.90;999.90;;;16.60;99.90;;;;;;5136181;27;20078;-88
2022/11/07 05:37:09;;;;;;;1999.90;999.90;;;16.20;99.90;;;;;;5135552;27;20074;-92
2022/11/07 05:39:35;;;;;;;1976.97;179.97;;;17.40;99.90;;;;;;5135785;27;20043;-81
2022/11/07 05:42:02;;;;;;;1999.90;999.90;;;17.20;99.90;;;;;;5135101;27;20279;-90
2022/11/07 05:44:28;;;;;;;1999.90;999.90;;;16.40;99.90;;;;;;5155763;27;20475;-91
2022/11/07 05:46:56;;;;;;;1999.90;999.90;;;16.20;99.90;;;;;;5154428;27;20047;-93
2022/11/07 05:49:22;;;;;;;1999.90;999.90;;;17.30;99.90;;;;;;5135964;27;20133;-85
2022/11/07 05:51:48;;;;;;;1999.90;999.90;;;16.30;99.90;;;;;;5154193;27;20103;-89
2022/11/07 05:54:14;;;;;;;1999.90;999.90;;;17.30;99.90;;;;;;5155107;27;20039;-87
2022/11/07 05:56:42;;;;;;;1999.90;999.90;;;16.70;99.90;;;;;;5154237;27;20098;-88
2022/11/07 05:59:09;;;;;;;1999.90;999.90;;;16.50;99.90;;;;;;5136615;27;20088;-89
2022/11/07 06:01:36;;;;;;;1999.90;999.90;;;17.20;99.90;;;;;;5153874;27;20122;-91
2022/11/07 06:04:06;;;;;;;1999.90;999.90;;;17.10;99.90;;;;;;5153843;27;20046;-89
2022/11/07 06:06:32;;;;;;;1999.90;999.90;;;16.30;99.90;;;;;;5135901;27;20118;-89
2022/11/07 06:08:58;;;;;;;1999.90;999.90;;;17.20;99.90;;;;;;5154453;27;20086;-88
2022/11/07 06:11:23;;;;;;;1999.90;999.90;;;16.30;99.90;;;;;;5137095;27;20423;-87
2022/11/07 06:13:49;;;;;;;1999.90;999.90;;;16.40;99.90;;;;;;5154919;27;20046;-86
2022/11/07 06:16:15;;;;;;;1999.90;999.90;;;16.90;99.90;;;;;;5136140;27;20486;-88
2022/11/07 06:18:40;;;;;;;1999.90;999.90;;;16.70;99.90;;;;;;5135524;27;20069;-90
2022/11/07 06:21:06;;;;;;;1999.90;999.90;;;17.10;99.90;;;;;;5133290;27;20252;-87
2022/11/07 06:23:32;;;;;;;1573.68;753.83;;;16.50;99.90;;;;;;5154213;27;20518;-87
2022/11/07 06:25:58;;;;;;;1999.90;999.90;;;16.20;99.90;;;;;;5154359;27;20368;-90
2022/11/07 06:28:24;;;;;;;1848.63;768.33;;;17.10;99.90;;;;;;5134980;27;20138;-87
2022/11/07 06:30:50;;;;;;;1999.90;999.90;;;16.20;99.90;;;;;;5152927;27;20129;-90
2022/11/07 06:33:17;;;;;;;1704.13;757.20;;;16.30;99.90;;;;;;5156737;27;20054;-89
2022/11/07 06:35:44;;;;;;;1999.90;999.90;;;16.40;99.90;;;;;;5135451;27;20107;-81
2022/11/07 06:38:11;;;;;;;1999.90;999.90;;;17.10;99.90;;;;;;5154510;27;20043;-90
2022/11/07 06:40:38;;;;;;;1767.68;333.58;;;16.60;99.90;;;;;;5154652;27;20035;-90
2022/11/07 06:43:13;;;;;;;1819.97;532.15;;;17.20;99.90;;;;;;5154453;27;20470;-85
2022/11/07 06:45:39;;;;;;;1999.90;796.22;;;17.30;99.90;;;;;;5136770;27;20575;-85
2022/11/07 06:48:06;;;;;;;1999.90;999.90;;;17.30;99.90;;;;;;5154427;27;20043;-84
2022/11/07 06:50:32;;;;;;;1999.90;272.38;;;17.50;99.90;;;;;;5154628;27;20039;-81
2022/11/07 06:53:06;;;;;;;1999.90;999.90;;;16.60;99.90;;;;;;5154080;27;20082;-77
2022/11/07 06:55:36;;;;;;;1999.90;999.90;;;16.40;99.90;;;;;;5154265;27;20053;-76
2022/11/07 06:58:02;;;;;;;1974.32;797.95;;;16.80;99.90;;;;;;5153660;27;20074;-76
2022/11/07 07:00:29;;;;;;;1999.90;999.90;;;16.90;99.90;;;;;;5153871;27;20472;-76
2022/11/07 07:02:55;;;;;;;1999.90;407.75;;;17.80;99.90;;;;;;5153904;27;20368;-75
2022/11/07 07:05:21;;;;;;;1999.90;999.90;;;17.20;99.90;;;;;;5135189;27;20043;-75
2022/11/07 07:07:47;;;;;;;1649.63;524.95;;;17.50;99.90;;;;;;5153803;27;20091;-76
2022/11/07 07:10:14;;;;;;;1999.90;999.90;;;16.50;99.90;;;;;;5155253;27;20043;-76
2022/11/07 07:12:40;;;;;;;1999.90;999.90;;;17.80;99.90;;;;;;5157820;27;20718;-76
2022/11/07 07:15:07;;;;;;;1999.90;999.90;;;17.30;99.90;;;;;;5157872;27;20125;-76
2022/11/07 07:17:32;;;;;;;1999.90;999.90;;;17.90;99.90;;;;;;5158144;27;20042;-76
2022/11/07 07:19:58;;;;;;;1732.68;759.55;;;16.80;99.90;;;;;;5157175;27;20611;-76
2022/11/07 07:22:24;;;;;;;1999.90;999.90;;;16.60;99.90;;;;;;5155451;27;20050;-76
2022/11/07 07:24:52;;;;;;;1999.90;999.90;;;16.50;99.90;;;;;;5139219;27;20043;-76
2022/11/07 07:27:19;;;;;;;1999.90;999.90;;;17.70;99.90;;;;;;5157931;27;20380;-76
2022/11/07 07:29:45;;;;;;;1999.90;999.90;;;16.70;99.90;;;;;;5157915;27;20376;-75
2022/11/07 07:32:11;;;;;;;995.22;38.88;;;17.80;99.90;;;;;;5138418;27;20119;-75
2022/11/07 07:34:37;;;;;;;1999.90;999.90;;;16.60;99.90;;;;;;5157743;27;20474;-76
2022/11/07 07:37:02;;;;;;;1999.90;999.90;;;17.50;99.90;;;;;;5157278;27;20039;-76
2022/11/07 07:39:29;;;;;;;1999.90;999.90;;;17.00;99.90;;;;;;5157689;27;20087;-76
2022/11/07 07:41:55;;;;;;;1999.90;999.90;;;18.00;99.90;;;;;;5138891;27;20082;-75
2022/11/07 07:44:21;;;;;;;1999.90;999.90;;;17.90;99.90;;;;;;5157773;27;20078;-76
2022/11/07 07:46:46;;;;;;;1999.90;999.90;;;16.60;99.90;;;;;;5157256;27;20505;-75
2022/11/07 07:49:12;;;;;;;1999.90;999.90;;;18.10;99.90;;;;;;5138791;27;20038;-75
2022/11/07 07:51:38;;;;;;;1999.90;999.90;;;16.70;99.90;;;;;;5156778;27;20057;-75
2022/11/07 07:54:03;;;;;;;1999.90;999.90;;;18.00;99.90;;;;;;5157104;27;20399;-75
2022/11/07 07:56:29;;;;;;;1999.90;999.90;;;16.70;99.90;;;;;;5157075;27;20437;-75
2022/11/07 07:58:55;;;;;;;1999.90;999.90;;;18.00;99.90;;;;;;5156968;27;20046;-75
2022/11/07 08:01:20;;;;;;;1999.90;999.90;;;16.80;99.90;;;;;;5156961;27;20047;-75
2022/11/07 08:03:46;;;;;;;1999.90;999.90;;;16.90;99.90;;;;;;5157268;27;20047;-76
2022/11/07 08:06:12;;;;;;;1999.90;999.90;;;17.00;99.90;;;;;;5156555;27;20062;-76
2022/11/07 08:08:37;;;;;;;1999.90;999.90;;;17.50;99.90;;;;;;5156818;27;20043;-75
2022/11/07 08:11:06;;;;;;;1999.90;999.90;;;17.90;99.90;;;;;;5156447;27;20047;-76
2022/11/07 08:13:31;;;;;;;1999.90;999.90;;;17.90;99.90;;;;;;5138529;27;20050;-76
2022/11/07 08:15:57;;;;;;;1999.90;999.90;;;17.30;99.90;;;;;;5138192;27;20042;-76
2022/11/07 08:18:23;;;;;;;1999.90;999.90;;;17.90;99.90;;;;;;5138522;27;20048;-76
2022/11/07 08:20:51;;;;;;;1999.90;999.90;;;17.10;99.90;;;;;;5153853;27;20486;-75
2022/11/07 08:23:16;;;;;;;1999.90;999.90;;;18.10;99.90;;;;;;5155424;27;20575;-76
2022/11/07 08:25:48;;;;;;;1648.10;758.40;;;17.00;99.90;;;;;;5156677;27;20042;-76
2022/11/07 08:28:14;;;;;;;1999.90;999.90;;;17.00;99.90;;;;;;5138060;27;20038;-76
2022/11/07 08:30:40;;;;;;;1999.90;999.90;;;18.10;99.90;;;;;;5137771;27;20046;-75
2022/11/07 08:33:05;;;;;;;1999.90;999.90;;;18.20;99.90;;;;;;5156093;27;20059;-76
2022/11/07 08:35:31;;;;;;;1999.90;999.90;;;17.40;99.90;;;;;;5137936;27;20156;-76
2022/11/07 08:37:58;;;;;;;1999.90;999.90;;;18.30;99.90;;;;;;5138031;27;20047;-76
2022/11/07 08:40:24;;;;;;;1999.90;999.90;;;18.30;99.90;;;;;;5156339;27;20485;-76
2022/11/07 08:42:50;;;;;;;1999.90;999.90;;;17.50;99.90;;;;;;5137785;27;20057;-76
2022/11/07 08:45:16;;;;;;;1999.90;999.90;;;17.90;99.90;;;;;;5137575;27;20266;-75
2022/11/07 08:47:42;;;;;;;1999.90;999.90;;;18.10;99.90;;;;;;5156441;27;20046;-76
2022/11/07 08:50:08;;;;;;;1999.90;999.90;;;18.30;99.90;;;;;;5155841;27;20039;-76
2022/11/07 08:52:35;;;;;;;1999.90;999.90;;;17.50;99.90;;;;;;5137566;27;20051;-76
2022/11/07 08:55:02;;;;;;;1999.90;999.90;;;17.30;99.90;;;;;;5155733;27;20145;-76
2022/11/07 08:57:27;;;;;;;941.57;347.07;;;17.40;99.90;;;;;;5156260;27;20058;-76
2022/11/07 08:59:53;;;;;;;1999.90;999.90;;;18.30;99.90;;;;;;5137584;27;20292;-76
2022/11/07 09:02:19;;;;;;;1999.90;999.90;;;18.00;99.90;;;;;;5155187;27;20043;-76
2022/11/07 09:04:44;;;;;;;1999.90;999.90;;;18.30;99.90;;;;;;5137624;27;20046;-76
2022/11/07 09:07:10;;;;;;;1999.90;999.90;;;18.10;99.90;;;;;;5155165;27;20246;-76
2022/11/07 09:09:36;;;;;;;1999.90;999.90;;;18.00;99.90;;;;;;5137642;27;20049;-77
2022/11/07 09:12:01;;;;;;;1641.63;754.40;;;18.50;99.90;;;;;;5155227;27;20082;-76
2022/11/07 09:14:27;;;;;;;1999.90;999.90;;;17.50;99.90;;;;;;5155772;27;20047;-77
2022/11/07 09:16:53;;;;;;;1999.90;999.90;;;17.90;99.90;;;;;;5155825;27;20420;-77
2022/11/07 09:19:18;;;;;;;1996.28;790.65;;;17.30;99.90;;;;;;5137178;27;20439;-76
2022/11/07 09:21:44;;;;;;;1999.90;999.90;;;18.30;99.90;;;;;;5118112;27;20035;-76
2022/11/07 09:24:10;;;;;;;1999.90;999.90;;;17.50;99.90;;;;;;5155058;27;20489;-76
2022/11/07 09:26:36;;;;;;;1999.90;999.90;;;17.70;99.90;;;;;;5155581;27;20412;-76
2022/11/07 09:29:02;;;;;;;1658.05;312.10;;;17.40;99.90;;;;;;5155356;27;20047;-75
2022/11/07 09:31:27;;;;;;;1999.90;999.90;;;17.40;99.90;;;;;;5155807;27;20069;-77
2022/11/07 09:33:53;;;;;;;1999.90;999.90;;;17.40;99.90;;;;;;5136066;27;20486;-77
2022/11/07 09:36:20;;;;;;;1999.90;999.90;;;18.60;99.90;;;;;;5136446;27;20055;-77
2022/11/07 09:38:46;;;;;;;1999.90;999.90;;;17.50;99.90;;;;;;5155451;27;20095;-77
2022/11/07 09:41:35;;;;;;;1999.90;999.90;;;17.40;99.90;;;;;;5136433;27;20126;-76
2022/11/07 09:44:20;;;;;;;1999.90;999.90;;;18.50;99.90;;;;;;5154928;27;20047;-77
2022/11/07 09:47:19;;;;;;;1999.90;999.90;;;18.70;99.90;;;;;;5136746;27;20087;-77
2022/11/07 09:49:49;;;;;;;1999.90;999.90;;;17.40;99.90;;;;;;5137272;27;20051;-77
2022/11/07 09:52:22;;;;;;;1999.90;999.90;;;18.30;99.90;;;;;;5154586;27;20043;-76
2022/11/07 09:55:07;;;;;;;1999.90;999.90;;;18.30;99.90;;;;;;5154652;27;20054;-77
2022/11/07 09:57:34;;;;;;;1999.90;999.90;;;18.70;99.90;;;;;;5155106;27;20078;-76
2022/11/07 10:00:10;;;;;;;1999.90;999.90;;;18.70;99.90;;;;;;5154962;27;20094;-77
2022/11/07 10:02:43;;;;;;;1999.90;999.90;;;17.50;99.90;;;;;;5154607;27;20509;-77
2022/11/07 10:05:13;;;;;;;1999.90;999.90;;;18.80;99.90;;;;;;5154160;27;20042;-77
2022/11/07 10:07:50;;;;;;;1999.90;999.90;;;18.70;99.90;;;;;;5154695;27;20038;-77
2022/11/07 10:10:37;;;;;;;1999.90;999.90;;;18.80;99.90;;;;;;5154265;27;20088;-77
2022/11/07 10:13:17;;;;;;;1999.90;999.90;;;18.70;99.90;;;;;;5154720;27;20043;-77
2022/11/07 10:16:03;;;;;;;1999.90;999.90;;;17.60;99.90;;;;;;5154774;27;20103;-77
2022/11/07 10:18:41;;;;;;;1999.90;999.90;;;17.60;99.90;;;;;;5154422;27;20042;-77
2022/11/07 10:21:49;;;;;;;1999.90;999.90;;;18.60;99.90;;;;;;5152870;27;20042;-77
2022/11/07 10:24:20;;;;;;;1999.90;999.90;;;17.80;99.90;;;;;;5136024;27;20049;-77
2022/11/07 10:26:46;;;;;;;1999.90;999.90;;;18.70;99.90;;;;;;5154219;27;20509;-78
2022/11/07 10:29:18;;;;;;;1999.90;999.90;;;19.10;99.90;;;;;;5154265;27;20042;-78
2022/11/07 10:31:52;;;;;;;1999.90;999.90;;;18.10;99.90;;;;;;5136084;27;20047;-78
2022/11/07 10:34:36;;;;;;;1999.90;999.90;;;18.10;99.90;;;;;;5135392;27;20051;-79
2022/11/07 10:37:03;;;;;;;1999.90;999.90;;;18.00;99.90;;;;;;5136033;27;20050;-78
2022/11/07 10:39:30;;;;;;;1999.90;999.90;;;19.20;99.90;;;;;;5135290;27;20390;-78
2022/11/07 10:42:18;;;;;;;1999.90;999.90;;;19.40;99.90;;;;;;5154282;27;20045;-78
2022/11/07 10:44:44;;;;;;;1999.90;999.90;;;19.40;99.90;;;;;;5153510;27;20046;-78
2022/11/07 10:47:19;;;;;;;1999.90;466.80;;;18.30;99.90;;;;;;5154081;27;20053;-78
2022/11/07 10:50:15;;;;;;;1999.90;999.90;;;19.40;99.90;;;;;;5135870;27;20348;-78
2022/11/07 10:52:41;;;;;;;1999.90;999.90;;;19.40;99.90;;;;;;5135780;27;20378;-80
2022/11/07 10:55:14;;;;;;;1999.90;999.90;;;18.30;99.90;;;;;;5153834;27;20049;-79
2022/11/07 10:57:39;;;;;;;1999.90;999.90;;;19.00;99.90;;;;;;5135902;27;20041;-79
2022/11/07 11:00:22;;;;;;;1999.90;577.67;;;19.10;99.90;;;;;;5135776;27;20035;-78
2022/11/07 11:02:49;;;;;;;1649.60;755.70;;;19.00;99.90;;;;;;5154104;27;20060;-79
2022/11/07 11:05:27;;;;;;;1999.90;999.90;;;19.40;99.90;;;;;;5135220;27;20046;-79
2022/11/07 11:07:55;;;;;;;1999.90;999.90;;;18.40;99.90;;;;;;5154252;27;20093;-80
2022/11/07 11:10:29;;;;;;;1999.90;999.90;;;18.40;99.90;;;;;;5153680;27;20045;-80
2022/11/07 11:12:55;;;;;;;1999.90;999.90;;;19.50;99.90;;;;;;5135595;27;20440;-80
2022/11/07 11:15:26;;;;;;;1999.90;999.90;;;18.70;99.90;;;;;;5135388;27;20046;-79
2022/11/07 11:18:01;;;;;;;1999.90;999.90;;;19.20;99.90;;;;;;5154120;27;20390;-81
2022/11/07 11:20:38;;;;;;;1999.90;999.90;;;19.60;99.90;;;;;;5151756;27;20043;-80
2022/11/07 11:23:18;;;;;;;1999.90;999.90;;;19.60;99.90;;;;;;5153709;27;20047;-81
2022/11/07 11:25:49;;;;;;;1999.90;999.90;;;19.60;99.90;;;;;;5154004;27;20466;-81
2022/11/07 11:28:25;;;;;;;1999.90;999.90;;;18.70;99.90;;;;;;5153920;27;20046;-81
2022/11/07 11:30:57;;;;;;;1999.90;999.90;;;19.20;99.90;;;;;;5153978;27;20043;-81
2022/11/07 11:33:29;;;;;;;1999.90;999.90;;;19.60;99.90;;;;;;5153159;27;20054;-80
2022/11/07 11:36:01;;;;;;;1999.90;999.90;;;19.60;99.90;;;;;;5153439;27;20055;-81
2022/11/07 11:38:37;;;;;;;1999.90;999.90;;;19.30;99.90;;;;;;5153641;27;20058;-82
2022/11/07 11:41:15;;;;;;;1999.90;999.90;;;19.30;99.90;;;;;;5153062;27;20472;-83
2022/11/07 11:44:05;;;;;;;1999.90;999.90;;;19.60;99.90;;;;;;5153092;27;20058;-81
2022/11/07 11:46:52;;;;;;;1999.90;999.90;;;18.90;99.90;;;;;;5153027;27;20041;-84
2022/11/07 11:49:28;;;;;;;1999.90;999.90;;;19.00;99.90;;;;;;5135254;27;20047;-79
2022/11/07 11:52:22;;;;;;;1999.90;999.90;;;19.10;99.90;;;;;;5153093;27;20050;-82
2022/11/07 11:54:50;;;;;;;1999.90;999.90;;;19.90;99.90;;;;;;5152544;27;20493;-85
2022/11/07 11:57:28;;;;;;;1999.90;999.90;;;19.10;99.90;;;;;;5155918;27;20078;-86
2022/11/07 12:00:14;;;;;;;1999.90;999.90;;;19.90;99.90;;;;;;5156907;27;20387;-84
2022/11/07 12:03:30;;;;;;;1999.90;999.90;;;19.90;99.90;;;;;;5156825;27;20050;-83
2022/11/07 12:06:15;;;;;;;1999.90;999.90;;;19.40;99.90;;;;;;5072026;28;20048;-87
2022/11/07 12:09:08;;;;;;;1999.90;999.90;;;19.20;99.90;;;;;;5131445;27;20059;-86
2022/11/07 12:12:02;;;;;;;1999.90;999.90;;;19.50;99.90;;;;;;5137789;27;20054;-82
2022/11/07 12:14:53;;;;;;;1999.90;999.90;;;19.70;99.90;;;;;;5156721;27;20043;-83
2022/11/07 12:17:42;;;;;;;1999.90;999.90;;;19.70;99.90;;;;;;5156345;27;20136;-88
2022/11/07 12:20:51;;;;;;;1999.90;999.90;;;19.20;99.90;;;;;;5141305;27;20196;-87
2022/11/07 12:23:28;;;;;;;1999.90;999.90;;;19.30;99.90;;;;;;5103968;27;20100;-87
2022/11/07 12:26:10;;;;;;;1999.90;999.90;;;19.30;99.90;;;;;;5156968;27;20078;-89
2022/11/07 12:29:01;;;;;;;1999.90;999.90;;;19.50;99.90;;;;;;5156582;27;20051;-91